sensor_id;sensor_type;location;lat;lon;timestamp;pressure;altitude;pressure_sealevel;temperature;humidity
13767;BME280;47980;48.794;9.176;2023-05-07T00:01:58;98130.22;;;16.29;80.65
13767;BME280;47980;48.794;9.176;2023-05-07T00:04:29;98136.28;;;16.26;81.06
13767;BME280;47980;48.794;9.176;2023-05-07T00:07:06;98142.88;;;16.06;83.57
13767;BME280;47980;48.794;9.176;2023-05-07T00:09:37;98136.41;;;16.07;83.31
13767;BME280;47980;48.794;9.176;2023-05-07T00:12:08;98137.31;;;15.92;84.53
13767;BME280;47980;48.794;9.176;2023-05-07T00:14:40;98138.09;;;15.92;84.56
13767;BME280;47980;48.794;9.176;2023-05-07T00:17:13;98138.47;;;15.91;84.05
13767;BME280;47980;48.794;9.176;2023-05-07T00:19:45;98140.59;;;15.81;85.01
13767;BME280;47980;48.794;9.176;2023-05-07T00:22:16;98137.38;;;15.72;85.62
13767;BME280;47980;48.794;9.176;2023-05-07T00:24:48;98133.38;;;15.62;86.23
13767;BME280;47980;48.794;9.176;2023-05-07T00:27:19;98126.84;;;15.60;85.21
13767;BME280;47980;48.794;9.176;2023-05-07T00:29:51;98130.03;;;15.66;84.20
13767;BME280;47980;48.794;9.176;2023-05-07T00:32:24;98127.66;;;15.64;84.94
13767;BME280;47980;48.794;9.176;2023-05-07T00:34:55;98121.16;;;15.61;84.50
13767;BME280;47980;48.794;9.176;2023-05-07T00:37:27;98126.13;;;15.63;84.38
13767;BME280;47980;48.794;9.176;2023-05-07T00:39:58;98122.63;;;15.59;83.83
13767;BME280;47980;48.794;9.176;2023-05-07T00:42:30;98124.03;;;15.53;84.31
13767;BME280;47980;48.794;9.176;2023-05-07T00:45:03;98123.75;;;15.58;85.03
13767;BME280;47980;48.794;9.176;2023-05-07T00:47:36;98119.94;;;15.59;84.79
13767;BME280;47980;48.794;9.176;2023-05-07T00:50:08;98114.81;;;15.50;85.29
13767;BME280;47980;48.794;9.176;2023-05-07T00:52:42;98111.69;;;15.45;85.73
13767;BME280;47980;48.794;9.176;2023-05-07T00:55:14;98110.91;;;15.44;85.59
13767;BME280;47980;48.794;9.176;2023-05-07T00:57:46;98105.19;;;15.46;85.73
13767;BME280;47980;48.794;9.176;2023-05-07T01:00:18;98107.09;;;15.45;85.65
13767;BME280;47980;48.794;9.176;2023-05-07T01:02:51;98108.25;;;15.44;85.53
13767;BME280;47980;48.794;9.176;2023-05-07T01:05:24;98100.56;;;15.43;86.11
13767;BME280;47980;48.794;9.176;2023-05-07T01:07:57;98103.25;;;15.43;86.25
13767;BME280;47980;48.794;9.176;2023-05-07T01:10:29;98112.34;;;15.38;87.25
13767;BME280;47980;48.794;9.176;2023-05-07T01:13:01;98100.81;;;15.34;88.10
13767;BME280;47980;48.794;9.176;2023-05-07T01:15:33;98111.38;;;15.27;88.29
13767;BME280;47980;48.794;9.176;2023-05-07T01:18:06;98113.34;;;15.30;87.35
13767;BME280;47980;48.794;9.176;2023-05-07T01:20:38;98116.28;;;15.25;88.66
13767;BME280;47980;48.794;9.176;2023-05-07T01:23:11;98101.81;;;15.26;88.27
13767;BME280;47980;48.794;9.176;2023-05-07T01:25:42;98113.22;;;15.23;88.82
13767;BME280;47980;48.794;9.176;2023-05-07T01:28:14;98111.69;;;15.22;89.28
13767;BME280;47980;48.794;9.176;2023-05-07T01:30:49;98107.81;;;15.19;89.56
13767;BME280;47980;48.794;9.176;2023-05-07T01:33:21;98109.47;;;15.27;89.32
13767;BME280;47980;48.794;9.176;2023-05-07T01:35:53;98110.53;;;15.23;89.17
13767;BME280;47980;48.794;9.176;2023-05-07T01:38:27;98105.47;;;15.17;90.02
13767;BME280;47980;48.794;9.176;2023-05-07T01:40:59;98101.25;;;15.16;89.63
13767;BME280;47980;48.794;9.176;2023-05-07T01:43:31;98108.16;;;15.17;89.40
13767;BME280;47980;48.794;9.176;2023-05-07T01:46:03;98107.25;;;15.10;90.48
13767;BME280;47980;48.794;9.176;2023-05-07T01:48:35;98097.75;;;15.12;90.67
13767;BME280;47980;48.794;9.176;2023-05-07T01:51:07;98100.38;;;15.09;90.30
13767;BME280;47980;48.794;9.176;2023-05-07T01:53:41;98104.56;;;15.10;90.49
13767;BME280;47980;48.794;9.176;2023-05-07T01:56:14;98101.38;;;15.01;91.17
13767;BME280;47980;48.794;9.176;2023-05-07T01:58:46;98104.66;;;14.94;91.40
13767;BME280;47980;48.794;9.176;2023-05-07T02:01:17;98103.19;;;14.97;91.18
13767;BME280;47980;48.794;9.176;2023-05-07T02:03:49;98108.69;;;15.04;90.55
13767;BME280;47980;48.794;9.176;2023-05-07T02:06:21;98096.78;;;15.01;91.21
13767;BME280;47980;48.794;9.176;2023-05-07T02:08:54;98104.56;;;15.10;90.54
13767;BME280;47980;48.794;9.176;2023-05-07T02:11:25;98104.16;;;15.08;90.88
13767;BME280;47980;48.794;9.176;2023-05-07T02:13:57;98104.50;;;15.06;91.02
13767;BME280;47980;48.794;9.176;2023-05-07T02:16:28;98100.28;;;15.05;90.53
13767;BME280;47980;48.794;9.176;2023-05-07T02:19:00;98114.09;;;15.07;90.98
13767;BME280;47980;48.794;9.176;2023-05-07T02:21:31;98105.50;;;14.98;90.95
13767;BME280;47980;48.794;9.176;2023-05-07T02:24:04;98107.78;;;14.96;91.80
13767;BME280;47980;48.794;9.176;2023-05-07T02:26:36;98112.38;;;14.99;92.69
13767;BME280;47980;48.794;9.176;2023-05-07T02:29:08;98106.63;;;14.97;92.37
13767;BME280;47980;48.794;9.176;2023-05-07T02:31:39;98105.50;;;14.98;92.30
13767;BME280;47980;48.794;9.176;2023-05-07T02:34:11;98109.44;;;15.04;91.62
13767;BME280;47980;48.794;9.176;2023-05-07T02:36:42;98105.09;;;14.96;90.75
13767;BME280;47980;48.794;9.176;2023-05-07T02:39:16;98108.19;;;14.98;90.91
13767;BME280;47980;48.794;9.176;2023-05-07T02:41:47;98104.47;;;14.83;91.29
13767;BME280;47980;48.794;9.176;2023-05-07T02:44:19;98105.72;;;14.70;93.22
13767;BME280;47980;48.794;9.176;2023-05-07T02:46:50;98101.19;;;14.71;92.92
13767;BME280;47980;48.794;9.176;2023-05-07T02:49:22;98108.06;;;14.72;92.55
13767;BME280;47980;48.794;9.176;2023-05-07T02:51:53;98105.66;;;14.66;92.82
13767;BME280;47980;48.794;9.176;2023-05-07T02:54:27;98098.69;;;14.62;94.18
13767;BME280;47980;48.794;9.176;2023-05-07T02:56:58;98098.06;;;14.68;92.44
13767;BME280;47980;48.794;9.176;2023-05-07T02:59:30;98101.03;;;14.63;93.19
13767;BME280;47980;48.794;9.176;2023-05-07T03:02:02;98106.63;;;14.58;93.15
13767;BME280;47980;48.794;9.176;2023-05-07T03:04:33;98104.25;;;14.53;94.39
13767;BME280;47980;48.794;9.176;2023-05-07T03:07:05;98101.25;;;14.39;94.61
13767;BME280;47980;48.794;9.176;2023-05-07T03:09:38;98087.91;;;14.39;94.83
13767;BME280;47980;48.794;9.176;2023-05-07T03:12:09;98088.31;;;14.41;94.73
13767;BME280;47980;48.794;9.176;2023-05-07T03:14:41;98080.66;;;14.39;94.99
13767;BME280;47980;48.794;9.176;2023-05-07T03:17:12;98076.03;;;14.36;95.82
13767;BME280;47980;48.794;9.176;2023-05-07T03:19:44;98070.00;;;14.39;95.28
13767;BME280;47980;48.794;9.176;2023-05-07T03:22:15;98076.03;;;14.36;95.22
13767;BME280;47980;48.794;9.176;2023-05-07T03:24:48;98079.38;;;14.33;94.44
13767;BME280;47980;48.794;9.176;2023-05-07T03:27:19;98083.47;;;14.27;94.92
13767;BME280;47980;48.794;9.176;2023-05-07T03:29:51;98086.63;;;14.33;93.83
13767;BME280;47980;48.794;9.176;2023-05-07T03:32:22;98089.91;;;14.26;94.27
13767;BME280;47980;48.794;9.176;2023-05-07T03:34:54;98085.63;;;14.21;93.83
13767;BME280;47980;48.794;9.176;2023-05-07T03:37:26;98092.09;;;14.20;94.49
13767;BME280;47980;48.794;9.176;2023-05-07T03:39:58;98085.63;;;14.21;94.65
13767;BME280;47980;48.794;9.176;2023-05-07T03:42:30;98094.47;;;14.26;94.67
13767;BME280;47980;48.794;9.176;2023-05-07T03:45:02;98089.00;;;14.18;95.64
13767;BME280;47980;48.794;9.176;2023-05-07T03:47:33;98093.19;;;14.19;96.18
13767;BME280;47980;48.794;9.176;2023-05-07T03:50:05;98091.19;;;14.32;95.12
13767;BME280;47980;48.794;9.176;2023-05-07T03:52:37;98094.31;;;14.18;95.90
13767;BME280;47980;48.794;9.176;2023-05-07T03:55:09;98089.69;;;14.15;95.98
13767;BME280;47980;48.794;9.176;2023-05-07T03:57:41;98098.97;;;14.21;95.88
13767;BME280;47980;48.794;9.176;2023-05-07T04:00:13;98092.66;;;14.30;95.07
13767;BME280;47980;48.794;9.176;2023-05-07T04:02:45;98093.78;;;14.29;94.49
13767;BME280;47980;48.794;9.176;2023-05-07T04:05:16;98092.25;;;14.28;95.93
13767;BME280;47980;48.794;9.176;2023-05-07T04:07:48;98090.75;;;14.30;94.82
13767;BME280;47980;48.794;9.176;2023-05-07T04:10:20;98095.59;;;14.25;95.50
13767;BME280;47980;48.794;9.176;2023-05-07T04:12:52;98108.34;;;14.31;95.67
13767;BME280;47980;48.794;9.176;2023-05-07T04:15:23;98102.03;;;14.39;94.53
13767;BME280;47980;48.794;9.176;2023-05-07T04:17:55;98106.16;;;14.37;94.83
13767;BME280;47980;48.794;9.176;2023-05-07T04:20:26;98109.94;;;14.36;96.14
13767;BME280;47980;48.794;9.176;2023-05-07T04:22:58;98110.09;;;14.43;95.70
13767;BME280;47980;48.794;9.176;2023-05-07T04:25:31;98107.50;;;14.47;95.21
13767;BME280;47980;48.794;9.176;2023-05-07T04:28:02;98112.19;;;14.50;95.53
13767;BME280;47980;48.794;9.176;2023-05-07T04:30:34;98109.75;;;14.60;94.64
13767;BME280;47980;48.794;9.176;2023-05-07T04:33:05;98115.47;;;14.62;94.78
13767;BME280;47980;48.794;9.176;2023-05-07T04:35:37;98114.84;;;14.69;94.06
13767;BME280;47980;48.794;9.176;2023-05-07T04:38:09;98112.47;;;14.83;94.02
13767;BME280;47980;48.794;9.176;2023-05-07T04:40:42;98116.19;;;14.98;93.70
13767;BME280;47980;48.794;9.176;2023-05-07T04:43:14;98119.75;;;15.25;92.28
13767;BME280;47980;48.794;9.176;2023-05-07T04:45:46;98122.97;;;15.34;91.25
13767;BME280;47980;48.794;9.176;2023-05-07T04:48:19;98116.53;;;15.39;90.60
13767;BME280;47980;48.794;9.176;2023-05-07T04:50:51;98124.50;;;15.35;90.54
13767;BME280;47980;48.794;9.176;2023-05-07T04:53:22;98133.00;;;15.41;90.50
13767;BME280;47980;48.794;9.176;2023-05-07T04:55:58;98121.38;;;15.30;90.05
13767;BME280;47980;48.794;9.176;2023-05-07T04:58:29;98124.66;;;15.23;91.03
13767;BME280;47980;48.794;9.176;2023-05-07T05:01:01;98131.78;;;15.15;90.20
13767;BME280;47980;48.794;9.176;2023-05-07T05:03:33;98127.72;;;15.02;91.27
13767;BME280;47980;48.794;9.176;2023-05-07T05:06:05;98126.59;;;15.03;91.50
13767;BME280;47980;48.794;9.176;2023-05-07T05:08:36;98134.25;;;15.05;91.81
13767;BME280;47980;48.794;9.176;2023-05-07T05:11:09;98138.28;;;15.14;91.77
13767;BME280;47980;48.794;9.176;2023-05-07T05:13:40;98141.91;;;15.06;92.17
13767;BME280;47980;48.794;9.176;2023-05-07T05:16:12;98143.94;;;15.13;92.13
13767;BME280;47980;48.794;9.176;2023-05-07T05:18:43;98148.53;;;15.12;92.47
13767;BME280;47980;48.794;9.176;2023-05-07T05:21:15;98148.22;;;15.17;91.83
13767;BME280;47980;48.794;9.176;2023-05-07T05:23:46;98137.47;;;15.14;91.38
13767;BME280;47980;48.794;9.176;2023-05-07T05:26:19;98140.59;;;14.97;93.42
13767;BME280;47980;48.794;9.176;2023-05-07T05:28:51;98148.91;;;15.34;91.51
13767;BME280;47980;48.794;9.176;2023-05-07T05:31:23;98156.59;;;15.78;89.58
13767;BME280;47980;48.794;9.176;2023-05-07T05:33:54;98156.44;;;16.17;86.90
13767;BME280;47980;48.794;9.176;2023-05-07T05:36:26;98160.78;;;16.55;83.41
13767;BME280;47980;48.794;9.176;2023-05-07T05:38:57;98148.41;;;17.03;81.22
13767;BME280;47980;48.794;9.176;2023-05-07T05:41:30;98147.63;;;16.43;82.91
13767;BME280;47980;48.794;9.176;2023-05-07T05:44:02;98150.88;;;16.86;79.48
13767;BME280;47980;48.794;9.176;2023-05-07T05:46:33;98147.41;;;16.81;78.93
13767;BME280;47980;48.794;9.176;2023-05-07T05:49:05;98151.63;;;16.82;77.48
13767;BME280;47980;48.794;9.176;2023-05-07T05:51:37;98151.06;;;16.73;79.78
13767;BME280;47980;48.794;9.176;2023-05-07T05:54:08;98161.78;;;17.00;77.56
13767;BME280;47980;48.794;9.176;2023-05-07T05:56:41;98162.84;;;16.95;77.73
13767;BME280;47980;48.794;9.176;2023-05-07T05:59:13;98158.13;;;17.15;77.53
13767;BME280;47980;48.794;9.176;2023-05-07T06:01:44;98172.03;;;17.65;75.25
13767;BME280;47980;48.794;9.176;2023-05-07T06:04:16;98160.50;;;18.06;73.89
13767;BME280;47980;48.794;9.176;2023-05-07T06:06:47;98166.75;;;18.20;73.71
13767;BME280;47980;48.794;9.176;2023-05-07T06:09:19;98176.84;;;18.34;72.72
13767;BME280;47980;48.794;9.176;2023-05-07T06:11:52;98176.22;;;18.62;71.67
13767;BME280;47980;48.794;9.176;2023-05-07T06:14:23;98169.66;;;18.56;70.51
13767;BME280;47980;48.794;9.176;2023-05-07T06:16:55;98174.19;;;18.41;71.74
13767;BME280;47980;48.794;9.176;2023-05-07T06:19:26;98165.59;;;18.21;72.68
13767;BME280;47980;48.794;9.176;2023-05-07T06:21:58;98172.81;;;17.66;74.74
13767;BME280;47980;48.794;9.176;2023-05-07T06:24:31;98169.72;;;17.26;76.69
13767;BME280;47980;48.794;9.176;2023-05-07T06:27:04;98170.56;;;17.34;76.83
13767;BME280;47980;48.794;9.176;2023-05-07T06:29:36;98168.22;;;17.29;76.82
13767;BME280;47980;48.794;9.176;2023-05-07T06:32:07;98179.09;;;17.43;76.96
13767;BME280;47980;48.794;9.176;2023-05-07T06:34:39;98178.53;;;17.27;77.94
13767;BME280;47980;48.794;9.176;2023-05-07T06:37:11;98175.81;;;17.61;74.33
13767;BME280;47980;48.794;9.176;2023-05-07T06:39:43;98174.69;;;17.62;75.34
13767;BME280;47980;48.794;9.176;2023-05-07T06:42:15;98179.44;;;17.75;76.03
13767;BME280;47980;48.794;9.176;2023-05-07T06:44:47;98175.69;;;17.84;76.34
13767;BME280;47980;48.794;9.176;2023-05-07T06:47:18;98183.09;;;17.60;76.56
13767;BME280;47980;48.794;9.176;2023-05-07T06:49:50;98183.81;;;17.94;74.78
13767;BME280;47980;48.794;9.176;2023-05-07T06:52:21;98175.38;;;18.47;71.54
13767;BME280;47980;48.794;9.176;2023-05-07T06:54:53;98180.81;;;18.62;71.47
13767;BME280;47980;48.794;9.176;2023-05-07T06:57:26;98178.94;;;18.69;69.98
13767;BME280;47980;48.794;9.176;2023-05-07T06:59:57;98174.53;;;19.13;68.66
13767;BME280;47980;48.794;9.176;2023-05-07T07:02:29;98180.31;;;19.15;65.96
13767;BME280;47980;48.794;9.176;2023-05-07T07:05:00;98184.66;;;19.55;65.12
13767;BME280;47980;48.794;9.176;2023-05-07T07:07:32;98173.94;;;19.80;63.49
13767;BME280;47980;48.794;9.176;2023-05-07T07:10:03;98164.31;;;20.29;61.42
13767;BME280;47980;48.794;9.176;2023-05-07T07:12:36;98181.53;;;19.39;64.82
13767;BME280;47980;48.794;9.176;2023-05-07T07:15:09;98170.50;;;20.19;61.47
13767;BME280;47980;48.794;9.176;2023-05-07T07:17:41;98165.84;;;20.44;62.02
13767;BME280;47980;48.794;9.176;2023-05-07T07:20:12;98166.97;;;20.40;60.62
13767;BME280;47980;48.794;9.176;2023-05-07T07:22:44;98164.22;;;20.72;59.83
13767;BME280;47980;48.794;9.176;2023-05-07T07:25:16;98170.25;;;21.12;58.20
13767;BME280;47980;48.794;9.176;2023-05-07T07:27:49;98169.66;;;21.53;58.66
13767;BME280;47980;48.794;9.176;2023-05-07T07:30:20;98160.22;;;21.82;57.31
13767;BME280;47980;48.794;9.176;2023-05-07T07:32:52;98168.53;;;22.02;55.70
13767;BME280;47980;48.794;9.176;2023-05-07T07:35:24;98169.19;;;21.69;56.59
13767;BME280;47980;48.794;9.176;2023-05-07T07:37:55;98163.22;;;21.92;56.88
13767;BME280;47980;48.794;9.176;2023-05-07T07:40:27;98164.22;;;22.53;55.51
13767;BME280;47980;48.794;9.176;2023-05-07T07:43:00;98166.81;;;22.26;56.08
13767;BME280;47980;48.794;9.176;2023-05-07T07:45:32;98164.50;;;22.63;55.43
13767;BME280;47980;48.794;9.176;2023-05-07T07:48:03;98173.34;;;23.01;54.41
13767;BME280;47980;48.794;9.176;2023-05-07T07:50:35;98171.69;;;21.31;58.54
13767;BME280;47980;48.794;9.176;2023-05-07T07:53:06;98170.75;;;22.15;58.86
13767;BME280;47980;48.794;9.176;2023-05-07T07:55:38;98165.56;;;21.90;56.01
13767;BME280;47980;48.794;9.176;2023-05-07T07:58:12;98168.03;;;22.18;57.11
13767;BME280;47980;48.794;9.176;2023-05-07T08:00:43;98167.97;;;22.25;57.00
13767;BME280;47980;48.794;9.176;2023-05-07T08:03:14;98169.59;;;22.16;58.25
13767;BME280;47980;48.794;9.176;2023-05-07T08:05:46;98161.88;;;22.10;55.70
13767;BME280;47980;48.794;9.176;2023-05-07T08:08:19;98169.31;;;21.99;56.31
13767;BME280;47980;48.794;9.176;2023-05-07T08:10:51;98166.31;;;21.90;57.78
13767;BME280;47980;48.794;9.176;2023-05-07T08:13:24;98165.94;;;21.88;59.06
13767;BME280;47980;48.794;9.176;2023-05-07T08:15:56;98170.34;;;21.64;58.10
13767;BME280;47980;48.794;9.176;2023-05-07T08:18:27;98173.53;;;22.04;56.05
13767;BME280;47980;48.794;9.176;2023-05-07T08:20:59;98167.69;;;22.09;55.58
13767;BME280;47980;48.794;9.176;2023-05-07T08:23:31;98172.72;;;22.86;55.33
13767;BME280;47980;48.794;9.176;2023-05-07T08:26:04;98174.63;;;22.93;54.73
13767;BME280;47980;48.794;9.176;2023-05-07T08:28:37;98171.97;;;22.86;53.48
13767;BME280;47980;48.794;9.176;2023-05-07T08:31:09;98171.66;;;23.14;53.76
13767;BME280;47980;48.794;9.176;2023-05-07T08:33:41;98164.41;;;23.35;54.53
13767;BME280;47980;48.794;9.176;2023-05-07T08:36:12;98165.47;;;22.79;54.33
13767;BME280;47980;48.794;9.176;2023-05-07T08:38:44;98168.88;;;22.83;55.62
13767;BME280;47980;48.794;9.176;2023-05-07T08:41:16;98167.72;;;23.19;53.02
13767;BME280;47980;48.794;9.176;2023-05-07T08:43:49;98169.31;;;23.43;54.05
13767;BME280;47980;48.794;9.176;2023-05-07T08:46:22;98173.06;;;23.53;53.38
13767;BME280;47980;48.794;9.176;2023-05-07T08:48:53;98168.38;;;24.08;51.43
13767;BME280;47980;48.794;9.176;2023-05-07T08:51:25;98170.56;;;24.60;49.28
13767;BME280;47980;48.794;9.176;2023-05-07T08:53:57;98165.84;;;23.43;52.51
13767;BME280;47980;48.794;9.176;2023-05-07T08:56:29;98178.16;;;23.74;52.66
13767;BME280;47980;48.794;9.176;2023-05-07T08:59:02;98169.19;;;24.05;51.37
13767;BME280;47980;48.794;9.176;2023-05-07T09:01:34;98168.47;;;24.24;50.23
13767;BME280;47980;48.794;9.176;2023-05-07T09:04:06;98167.75;;;23.73;51.11
13767;BME280;47980;48.794;9.176;2023-05-07T09:06:38;98172.41;;;23.72;51.85
13767;BME280;47980;48.794;9.176;2023-05-07T09:09:14;98165.28;;;24.06;51.16
13767;BME280;47980;48.794;9.176;2023-05-07T09:11:47;98159.91;;;24.49;49.95
13767;BME280;47980;48.794;9.176;2023-05-07T09:14:22;98163.47;;;24.86;50.39
13767;BME280;47980;48.794;9.176;2023-05-07T09:16:54;98165.47;;;25.21;48.65
13767;BME280;47980;48.794;9.176;2023-05-07T09:19:26;98154.16;;;25.23;47.91
13767;BME280;47980;48.794;9.176;2023-05-07T09:21:58;98150.13;;;25.48;48.68
13767;BME280;47980;48.794;9.176;2023-05-07T09:24:31;98163.56;;;25.55;47.69
13767;BME280;47980;48.794;9.176;2023-05-07T09:27:07;98148.03;;;25.72;46.95
13767;BME280;47980;48.794;9.176;2023-05-07T09:29:41;98144.22;;;25.69;47.72
13767;BME280;47980;48.794;9.176;2023-05-07T09:32:14;98142.34;;;24.93;47.86
13767;BME280;47980;48.794;9.176;2023-05-07T09:34:46;98132.88;;;25.21;47.73
13767;BME280;47980;48.794;9.176;2023-05-07T09:37:18;98138.34;;;24.82;48.46
13767;BME280;47980;48.794;9.176;2023-05-07T09:39:49;98141.47;;;24.60;50.20
13767;BME280;47980;48.794;9.176;2023-05-07T09:42:23;98133.34;;;24.80;49.03
13767;BME280;47980;48.794;9.176;2023-05-07T09:44:58;98133.47;;;25.13;48.19
13767;BME280;47980;48.794;9.176;2023-05-07T09:47:32;98132.53;;;25.19;46.72
13767;BME280;47980;48.794;9.176;2023-05-07T09:50:05;98133.38;;;25.16;47.40
13767;BME280;47980;48.794;9.176;2023-05-07T09:52:41;98133.63;;;25.22;47.46
13767;BME280;47980;48.794;9.176;2023-05-07T09:55:13;98134.69;;;25.61;47.61
13767;BME280;47980;48.794;9.176;2023-05-07T09:57:50;98132.31;;;25.96;46.10
13767;BME280;47980;48.794;9.176;2023-05-07T10:00:25;98127.84;;;26.18;46.25
13767;BME280;47980;48.794;9.176;2023-05-07T10:02:58;98128.75;;;26.44;44.47
13767;BME280;47980;48.794;9.176;2023-05-07T10:05:32;98133.25;;;25.89;44.79
13767;BME280;47980;48.794;9.176;2023-05-07T10:08:05;98125.94;;;26.48;45.73
13767;BME280;47980;48.794;9.176;2023-05-07T10:10:37;98127.47;;;26.03;46.42
13767;BME280;47980;48.794;9.176;2023-05-07T10:13:10;98128.84;;;25.95;46.17
13767;BME280;47980;48.794;9.176;2023-05-07T10:15:43;98116.66;;;26.16;45.12
13767;BME280;47980;48.794;9.176;2023-05-07T10:18:16;98116.72;;;25.83;45.02
13767;BME280;47980;48.794;9.176;2023-05-07T10:20:51;98106.59;;;25.35;47.69
13767;BME280;47980;48.794;9.176;2023-05-07T10:23:24;98109.63;;;25.69;47.62
13767;BME280;47980;48.794;9.176;2023-05-07T10:25:57;98098.19;;;26.24;45.71
13767;BME280;47980;48.794;9.176;2023-05-07T10:28:32;98110.56;;;25.63;46.33
13767;BME280;47980;48.794;9.176;2023-05-07T10:31:21;98097.63;;;26.16;44.88
13767;BME280;47980;48.794;9.176;2023-05-07T10:33:58;98101.84;;;26.17;45.54
13767;BME280;47980;48.794;9.176;2023-05-07T10:36:30;98104.47;;;26.21;45.14
13767;BME280;47980;48.794;9.176;2023-05-07T10:39:05;98097.41;;;27.20;44.11
13767;BME280;47980;48.794;9.176;2023-05-07T10:41:37;98100.25;;;27.54;43.65
13767;BME280;47980;48.794;9.176;2023-05-07T10:44:09;98097.41;;;27.58;43.39
13767;BME280;47980;48.794;9.176;2023-05-07T10:46:42;98101.38;;;26.06;46.18
13767;BME280;47980;48.794;9.176;2023-05-07T10:49:13;98105.38;;;25.52;45.35
13767;BME280;47980;48.794;9.176;2023-05-07T10:52:12;98098.25;;;24.89;48.35
13767;BME280;47980;48.794;9.176;2023-05-07T10:54:45;98101.84;;;25.03;48.74
13767;BME280;47980;48.794;9.176;2023-05-07T10:57:33;98090.63;;;25.20;48.02
13767;BME280;47980;48.794;9.176;2023-05-07T11:00:41;98092.56;;;25.36;48.51
13767;BME280;47980;48.794;9.176;2023-05-07T11:03:14;98080.25;;;26.26;44.84
13767;BME280;47980;48.794;9.176;2023-05-07T11:05:46;98080.09;;;26.17;43.51
13767;BME280;47980;48.794;9.176;2023-05-07T11:08:19;98078.66;;;26.12;44.66
13767;BME280;47980;48.794;9.176;2023-05-07T11:10:51;98086.97;;;26.22;45.24
13767;BME280;47980;48.794;9.176;2023-05-07T11:13:43;98086.19;;;26.21;44.05
13767;BME280;47980;48.794;9.176;2023-05-07T11:16:18;98084.69;;;26.20;42.42
13767;BME280;47980;48.794;9.176;2023-05-07T11:18:52;98078.50;;;26.03;43.22
13767;BME280;47980;48.794;9.176;2023-05-07T11:21:35;98085.44;;;26.21;43.19
13767;BME280;47980;48.794;9.176;2023-05-07T11:24:08;98083.66;;;25.68;44.23
13767;BME280;47980;48.794;9.176;2023-05-07T11:26:45;98070.97;;;26.11;42.72
13767;BME280;47980;48.794;9.176;2023-05-07T11:29:17;98066.06;;;25.73;42.67
13767;BME280;47980;48.794;9.176;2023-05-07T11:31:50;98066.50;;;25.88;44.14
13767;BME280;47980;48.794;9.176;2023-05-07T11:34:25;98068.69;;;25.93;46.71
13767;BME280;47980;48.794;9.176;2023-05-07T11:36:58;98073.72;;;25.29;47.54
13767;BME280;47980;48.794;9.176;2023-05-07T11:39:31;98074.22;;;24.52;49.08
13767;BME280;47980;48.794;9.176;2023-05-07T11:42:03;98067.47;;;24.96;48.92
13767;BME280;47980;48.794;9.176;2023-05-07T11:44:42;98059.53;;;24.49;48.62
13767;BME280;47980;48.794;9.176;2023-05-07T11:47:17;98057.06;;;24.35;49.19
13767;BME280;47980;48.794;9.176;2023-05-07T11:49:51;98060.34;;;24.26;49.52
13767;BME280;47980;48.794;9.176;2023-05-07T11:52:24;98067.25;;;24.50;49.54
13767;BME280;47980;48.794;9.176;2023-05-07T11:54:57;98060.63;;;24.32;50.24
13767;BME280;47980;48.794;9.176;2023-05-07T11:57:29;98075.06;;;24.25;51.53
13767;BME280;47980;48.794;9.176;2023-05-07T12:00:02;98083.34;;;23.74;52.90
13767;BME280;47980;48.794;9.176;2023-05-07T12:02:34;98096.72;;;22.77;58.61
13767;BME280;47980;48.794;9.176;2023-05-07T12:05:07;98099.88;;;22.38;65.66
13767;BME280;47980;48.794;9.176;2023-05-07T12:07:40;98104.25;;;21.83;69.61
13767;BME280;47980;48.794;9.176;2023-05-07T12:10:11;98103.69;;;21.57;70.97
13767;BME280;47980;48.794;9.176;2023-05-07T12:12:46;98103.31;;;21.52;72.80
13767;BME280;47980;48.794;9.176;2023-05-07T12:15:17;98098.78;;;21.38;74.28
13767;BME280;47980;48.794;9.176;2023-05-07T12:17:53;98106.72;;;20.97;71.94
13767;BME280;47980;48.794;9.176;2023-05-07T12:20:26;98110.00;;;20.49;76.35
13767;BME280;47980;48.794;9.176;2023-05-07T12:22:58;98093.81;;;20.56;74.64
13767;BME280;47980;48.794;9.176;2023-05-07T12:25:30;98107.28;;;20.49;77.82
13767;BME280;47980;48.794;9.176;2023-05-07T12:28:02;98104.28;;;20.14;74.59
13767;BME280;47980;48.794;9.176;2023-05-07T12:30:36;98111.59;;;19.57;80.47
13767;BME280;47980;48.794;9.176;2023-05-07T12:33:08;98121.19;;;19.29;82.94
13767;BME280;47980;48.794;9.176;2023-05-07T12:35:44;98137.66;;;19.10;89.19
13767;BME280;47980;48.794;9.176;2023-05-07T12:38:17;98147.88;;;18.72;92.76
13767;BME280;47980;48.794;9.176;2023-05-07T12:40:50;98159.34;;;18.69;89.89
13767;BME280;47980;48.794;9.176;2023-05-07T12:43:25;98167.13;;;18.78;87.34
13767;BME280;47980;48.794;9.176;2023-05-07T12:45:59;98182.50;;;18.88;87.25
13767;BME280;47980;48.794;9.176;2023-05-07T12:48:31;98191.75;;;18.90;86.68
13767;BME280;47980;48.794;9.176;2023-05-07T12:51:05;98197.03;;;18.72;91.47
13767;BME280;47980;48.794;9.176;2023-05-07T12:53:40;98184.16;;;18.41;92.93
13767;BME280;47980;48.794;9.176;2023-05-07T12:56:15;98191.69;;;18.21;94.00
13767;BME280;47980;48.794;9.176;2023-05-07T12:58:48;98182.81;;;18.13;93.80
13767;BME280;47980;48.794;9.176;2023-05-07T13:01:20;98193.41;;;17.95;87.40
13767;BME280;47980;48.794;9.176;2023-05-07T13:03:52;98194.97;;;17.59;83.32
13767;BME280;47980;48.794;9.176;2023-05-07T13:06:24;98189.22;;;17.61;87.53
13767;BME280;47980;48.794;9.176;2023-05-07T13:08:56;98196.09;;;17.54;86.40
13767;BME280;47980;48.794;9.176;2023-05-07T13:11:27;98198.53;;;17.70;92.18
13767;BME280;47980;48.794;9.176;2023-05-07T13:13:59;98201.88;;;17.60;88.83
13767;BME280;47980;48.794;9.176;2023-05-07T13:16:30;98213.56;;;17.78;96.27
13767;BME280;47980;48.794;9.176;2023-05-07T13:19:02;98223.19;;;17.79;97.76
13767;BME280;47980;48.794;9.176;2023-05-07T13:21:35;98218.31;;;17.55;93.94
13767;BME280;47980;48.794;9.176;2023-05-07T13:24:07;98237.56;;;17.64;95.49
13767;BME280;47980;48.794;9.176;2023-05-07T13:26:38;98242.38;;;17.48;95.18
13767;BME280;47980;48.794;9.176;2023-05-07T13:29:10;98241.44;;;17.33;87.04